Conway, Arkansas
Current Conditions -  °F | °C
As of 6:58 AM on Thursday 30 Oct 2014 (Local Time) from KLRF Reporting Station
Clear Clear  
Wind Chill: 40°   Ceiling: Unl
Heat Index: 40°   Visibility: 10mi
Dew Point: 38°   Wind: 0mph
Humidity: 94%   Direction: NA
Pressure: 30.17"   Gusts: NA
Location:  35.09°N, 92.44°W
Report Text: KLRF 301158Z AUTO 00000KT 10SM CLR 04/04 A3017 RMK AO2 SLP220 T00440035 10081 20042 53006
Loading
Personal Weather Stations






























Interactive Weather Map
Tropical Storm Tracking
New forecast layout! Learn more

10-Day Weather Forecast

Advertisements
Track Severe Weather on mobile